createdAt,value
2019-05-10T00:01:31.264Z,6.10
2019-05-10T00:04:17.732Z,8.10
2019-05-10T00:07:04.239Z,7.73
2019-05-10T00:09:32.123Z,7.40
2019-05-10T00:12:02.758Z,7.80
2019-05-10T00:14:35.581Z,7.60
2019-05-10T00:17:05.877Z,7.50
2019-05-10T00:19:34.481Z,7.50
2019-05-10T00:22:05.808Z,7.50
2019-05-10T00:24:34.342Z,8.20
2019-05-10T00:27:05.071Z,8.43
2019-05-10T00:29:33.679Z,8.23
2019-05-10T00:32:03.826Z,7.83
2019-05-10T00:34:35.400Z,7.23
2019-05-10T00:37:04.438Z,8.80
2019-05-10T00:39:34.693Z,7.70
2019-05-10T00:42:06.348Z,8.27
2019-05-10T00:44:35.106Z,8.10
2019-05-10T00:47:03.922Z,7.77
2019-05-10T00:49:35.413Z,8.97
2019-05-10T00:52:04.114Z,8.33
2019-05-10T00:54:33.060Z,8.30
2019-05-10T00:57:04.352Z,8.03
2019-05-10T00:59:34.617Z,8.10
2019-05-10T01:02:05.892Z,9.23
2019-05-10T01:04:34.449Z,8.10
2019-05-10T01:07:04.653Z,8.80
2019-05-10T01:09:35.930Z,8.60
2019-05-10T01:12:04.957Z,8.13
2019-05-10T01:14:33.792Z,8.53
2019-05-10T01:17:04.331Z,8.97
2019-05-10T01:19:34.501Z,8.80
2019-05-10T01:22:04.826Z,8.67
2019-05-10T01:24:33.355Z,8.40
2019-05-10T01:27:01.990Z,7.40
2019-05-10T01:29:32.557Z,6.30
2019-05-10T01:32:02.729Z,6.87
2019-05-10T01:34:32.969Z,6.40
2019-05-10T01:37:01.588Z,5.50
2019-05-10T01:39:31.988Z,6.97
2019-05-10T01:42:01.421Z,7.40
2019-05-10T01:44:31.873Z,7.30
2019-05-10T01:47:00.675Z,7.07
2019-05-10T01:49:29.277Z,7.03
2019-05-10T01:51:57.814Z,6.60
2019-05-10T01:54:26.332Z,7.70
2019-05-10T01:56:54.901Z,8.30
2019-05-10T01:59:23.510Z,7.20
2019-05-10T02:01:52.044Z,7.17
2019-05-10T02:04:20.565Z,7.67
2019-05-10T02:06:49.171Z,7.43
2019-05-10T02:09:17.790Z,7.37
2019-05-10T02:11:46.386Z,7.67
2019-05-10T02:14:14.916Z,7.07
2019-05-10T02:16:43.714Z,7.80
2019-05-10T02:19:12.262Z,7.40
2019-05-10T02:21:41.082Z,6.40
2019-05-10T02:24:09.894Z,5.90
2019-05-10T02:26:38.523Z,6.37
2019-05-10T02:29:07.060Z,6.17
2019-05-10T02:31:35.755Z,6.10
2019-05-10T02:34:04.367Z,5.93
2019-05-10T02:36:34.450Z,5.80
2019-05-10T02:39:06.539Z,5.97
2019-05-10T02:41:35.159Z,6.13
2019-05-10T02:44:03.687Z,5.40
2019-05-10T02:46:33.741Z,4.73
2019-05-10T02:49:03.829Z,5.67
2019-05-10T02:51:34.023Z,5.47
2019-05-10T02:54:05.614Z,5.27
2019-05-10T02:56:34.898Z,5.20
2019-05-10T02:59:03.862Z,4.53
2019-05-10T03:01:32.705Z,4.13
2019-05-10T03:04:03.705Z,4.30
2019-05-10T03:06:34.412Z,4.93
2019-05-10T03:09:06.614Z,4.37
2019-05-10T03:11:46.795Z,4.40
2019-05-10T03:14:17.620Z,4.60
2019-05-10T03:16:49.341Z,4.07
2019-05-10T03:19:20.198Z,3.73
2019-05-10T03:21:51.780Z,3.30
2019-05-10T03:24:20.643Z,3.50
2019-05-10T03:26:51.273Z,3.60
2019-05-10T03:29:19.565Z,2.60
2019-05-10T03:31:48.181Z,5.37
2019-05-10T03:34:17.247Z,3.30
2019-05-10T03:36:45.783Z,3.70
2019-05-10T03:39:14.346Z,4.43
2019-05-10T03:41:43.490Z,3.90
2019-05-10T03:44:12.186Z,4.00
2019-05-10T03:46:40.744Z,3.93
2019-05-10T03:49:09.303Z,3.87
2019-05-10T03:51:37.854Z,3.20
2019-05-10T03:54:06.441Z,3.00
2019-05-10T03:56:35.056Z,3.30
2019-05-10T03:59:03.675Z,3.10
2019-05-10T04:01:33.836Z,3.50
2019-05-10T04:04:09.365Z,3.70
2019-05-10T04:06:35.874Z,3.40
2019-05-10T04:09:06.545Z,3.40
2019-05-10T04:11:35.126Z,3.20
2019-05-10T04:14:03.969Z,2.70
2019-05-10T04:16:35.975Z,3.30
2019-05-10T04:19:04.507Z,3.60
2019-05-10T04:21:35.815Z,3.20
2019-05-10T04:24:04.497Z,3.03
2019-05-10T04:26:36.186Z,3.67
2019-05-10T04:29:04.902Z,4.13
2019-05-10T04:31:33.506Z,4.50
2019-05-10T04:34:02.238Z,4.50
2019-05-10T04:36:33.835Z,5.03
2019-05-10T04:39:06.188Z,4.37
2019-05-10T04:41:34.711Z,5.30
2019-05-10T04:44:06.368Z,4.53
2019-05-10T04:46:34.974Z,4.63
2019-05-10T04:49:03.532Z,4.20
2019-05-10T04:51:32.067Z,4.53
2019-05-10T04:54:03.631Z,4.00
2019-05-10T04:56:33.737Z,5.50
2019-05-10T04:59:03.894Z,4.77
2019-05-10T05:01:35.416Z,4.60
2019-05-10T05:04:04.096Z,3.80
2019-05-10T05:06:32.723Z,4.90
2019-05-10T05:09:02.983Z,5.30
2019-05-10T05:11:31.592Z,4.40
2019-05-10T05:14:00.196Z,4.10
2019-05-10T05:16:28.719Z,4.90
2019-05-10T05:18:57.312Z,4.70
2019-05-10T05:21:25.929Z,4.80
2019-05-10T05:23:54.543Z,5.50
2019-05-10T05:26:23.159Z,4.50
2019-05-10T05:28:51.982Z,5.20
2019-05-10T05:31:20.508Z,4.50
2019-05-10T05:33:49.107Z,5.20
2019-05-10T05:36:17.723Z,4.30
2019-05-10T05:38:47.674Z,4.50
2019-05-10T05:41:16.508Z,5.37
2019-05-10T05:43:46.191Z,4.70
2019-05-10T05:46:15.752Z,4.47
2019-05-10T05:48:44.285Z,4.53
2019-05-10T05:51:12.818Z,5.20
2019-05-10T05:53:42.853Z,4.60
2019-05-10T05:56:14.136Z,4.80
2019-05-10T05:58:44.695Z,5.80
2019-05-10T06:01:24.390Z,4.50
2019-05-10T06:03:45.859Z,4.57
2019-05-10T06:06:21.248Z,5.13
2019-05-10T06:08:44.746Z,4.10
2019-05-10T06:11:13.268Z,4.57
2019-05-10T06:13:42.096Z,4.37
2019-05-10T06:16:13.209Z,4.33
2019-05-10T06:18:41.526Z,4.07
2019-05-10T06:21:11.177Z,4.43
2019-05-10T06:23:39.726Z,4.00
2019-05-10T06:26:21.030Z,4.03
2019-05-10T06:31:09.124Z,3.50
2019-05-10T06:33:39.756Z,4.27
2019-05-10T06:36:08.091Z,4.10
2019-05-10T06:38:36.699Z,3.97
2019-05-10T06:41:10.297Z,3.87
2019-05-10T06:43:35.658Z,4.20
2019-05-10T06:46:04.371Z,3.77
2019-05-10T06:48:34.437Z,4.13
2019-05-10T06:51:09.256Z,3.80
2019-05-10T06:53:34.924Z,4.43
2019-05-10T06:56:03.558Z,5.70
2019-05-10T06:58:36.352Z,3.73
2019-05-10T07:01:05.272Z,4.30
2019-05-10T07:03:33.785Z,3.67
2019-05-10T07:06:02.635Z,3.80
2019-05-10T07:08:43.714Z,4.73
2019-05-10T07:11:03.556Z,4.00
2019-05-10T07:13:32.405Z,3.57
2019-05-10T07:16:01.852Z,3.90
2019-05-10T07:18:30.950Z,3.90
2019-05-10T07:21:00.830Z,4.87
2019-05-10T07:23:47.744Z,3.60
2019-05-10T07:26:17.630Z,4.40
2019-05-10T07:28:51.953Z,4.83
2019-05-10T07:31:17.139Z,3.73
2019-05-10T07:33:45.697Z,3.30
2019-05-10T07:36:15.564Z,2.80
2019-05-10T07:38:44.676Z,3.00
2019-05-10T07:41:13.203Z,3.43
2019-05-10T07:43:41.794Z,3.50
2019-05-10T07:46:10.416Z,2.97
2019-05-10T07:48:41.354Z,2.93
2019-05-10T07:51:09.199Z,2.97
2019-05-10T07:53:37.802Z,3.60
2019-05-10T07:56:07.868Z,3.30
2019-05-10T07:58:38.343Z,3.07
2019-05-10T08:01:06.896Z,3.07
2019-05-10T08:03:40.501Z,3.43
2019-05-10T08:06:08.215Z,3.07
2019-05-10T08:08:38.900Z,3.23
2019-05-10T08:11:08.591Z,3.90
2019-05-10T08:13:39.317Z,4.37
2019-05-10T08:16:11.858Z,4.50
2019-05-10T08:18:42.032Z,4.07
2019-05-10T08:21:20.933Z,5.03
2019-05-10T08:23:41.070Z,4.90
2019-05-10T08:26:11.067Z,5.50
2019-05-10T08:28:44.439Z,5.00
2019-05-10T08:31:12.406Z,5.43
2019-05-10T08:33:46.289Z,5.83
2019-05-10T08:36:12.127Z,5.67
2019-05-10T08:38:46.205Z,8.00
2019-05-10T08:41:16.508Z,9.20
2019-05-10T08:43:43.017Z,9.20
2019-05-10T08:46:12.199Z,10.50
2019-05-10T08:48:46.724Z,10.30
2019-05-10T08:51:12.508Z,10.17
2019-05-10T08:53:42.088Z,9.00
2019-05-10T08:56:15.938Z,9.40
2019-05-10T08:58:42.210Z,9.40
2019-05-10T09:01:20.840Z,10.60
2019-05-10T09:03:42.023Z,9.50
2019-05-10T09:06:14.321Z,8.73
2019-05-10T09:08:43.194Z,8.60
2019-05-10T09:11:11.568Z,8.60
2019-05-10T09:13:42.636Z,7.87
2019-05-10T09:16:10.550Z,7.70
2019-05-10T09:18:46.187Z,7.80
2019-05-10T09:21:13.551Z,7.70
2019-05-10T09:23:39.756Z,7.73
2019-05-10T09:26:15.995Z,8.37
2019-05-10T09:28:42.168Z,8.20
2019-05-10T09:31:18.657Z,8.50
2019-05-10T09:33:49.148Z,9.03
2019-05-10T09:36:12.444Z,9.30
2019-05-10T09:38:45.722Z,10.10
2019-05-10T09:41:12.035Z,10.00
2019-05-10T09:43:48.369Z,9.90
2019-05-10T09:46:11.465Z,10.17
2019-05-10T09:48:44.670Z,9.70
2019-05-10T09:51:13.764Z,9.10
2019-05-10T09:53:41.813Z,9.30
2019-05-10T09:56:10.426Z,10.10
2019-05-10T09:58:39.002Z,9.50
2019-05-10T10:01:14.817Z,11.97
2019-05-10T10:03:43.066Z,10.77
2019-05-10T10:06:11.165Z,10.40
2019-05-10T10:08:43.567Z,11.40
2019-05-10T10:11:15.121Z,9.80
2019-05-10T10:13:43.529Z,10.40
2019-05-10T10:16:14.487Z,11.33
2019-05-10T10:18:40.241Z,11.77
2019-05-10T10:21:10.374Z,11.73
2019-05-10T10:23:39.608Z,13.20
2019-05-10T10:26:12.765Z,12.03
2019-05-10T10:28:39.713Z,12.73
2019-05-10T10:31:08.854Z,12.73
2019-05-10T10:33:38.118Z,12.07
2019-05-10T10:36:09.940Z,12.00
2019-05-10T10:38:45.444Z,13.40
2019-05-10T10:41:08.318Z,12.00
2019-05-10T10:43:37.368Z,12.50
2019-05-10T10:46:12.097Z,12.70
2019-05-10T10:48:36.980Z,12.80
2019-05-10T10:51:08.087Z,11.93
2019-05-10T10:53:36.237Z,13.20
2019-05-10T10:56:07.457Z,10.23
2019-05-10T10:58:35.125Z,10.97
2019-05-10T11:01:10.796Z,11.27
2019-05-10T11:03:33.950Z,10.93
2019-05-10T11:06:05.552Z,9.33
2019-05-10T11:08:34.104Z,8.73
2019-05-10T11:11:05.628Z,9.43
2019-05-10T11:13:44.110Z,9.30
2019-05-10T11:16:10.872Z,9.10
2019-05-10T11:18:34.793Z,8.60
2019-05-10T11:21:06.086Z,8.00
2019-05-10T11:23:39.085Z,8.40
2019-05-10T11:26:05.088Z,8.53
2019-05-10T11:28:38.656Z,6.07
2019-05-10T11:31:03.877Z,5.80
2019-05-10T11:33:35.941Z,6.43
2019-05-10T11:36:08.629Z,6.87
2019-05-10T11:38:35.122Z,6.60
2019-05-10T11:41:07.059Z,7.07
2019-05-10T11:43:34.415Z,5.70
2019-05-10T11:46:04.628Z,6.20
2019-05-10T11:48:37.382Z,6.90
2019-05-10T11:51:12.276Z,6.40
2019-05-10T11:53:36.908Z,6.40
2019-05-10T11:56:07.794Z,8.00
2019-05-10T12:03:36.798Z,5.77
2019-05-10T12:06:08.990Z,5.57
2019-05-10T12:08:36.128Z,5.50
2019-05-10T12:11:18.099Z,6.87
2019-05-10T12:13:35.286Z,5.97
2019-05-10T12:16:03.885Z,5.33
2019-05-10T12:18:36.288Z,7.40
2019-05-10T12:21:09.606Z,5.00
2019-05-10T12:23:45.806Z,5.50
2019-05-10T12:26:05.895Z,6.63
2019-05-10T12:26:19.490Z,6.07
2019-05-10T12:28:36.590Z,6.80
2019-05-10T12:31:07.591Z,6.20
2019-05-10T12:33:35.951Z,5.97
2019-05-10T12:36:04.678Z,6.50
2019-05-10T12:38:38.427Z,5.60
2019-05-10T12:41:07.553Z,5.20
2019-05-10T12:43:36.105Z,6.30
2019-05-10T12:46:04.804Z,5.70
2019-05-10T12:48:35.946Z,5.50
2019-05-10T12:51:08.261Z,5.70
2019-05-10T12:53:47.870Z,6.30
2019-05-10T12:56:13.498Z,3.37
2019-05-10T12:58:42.090Z,3.43
2019-05-10T13:01:10.733Z,3.43
2019-05-10T13:03:39.341Z,3.30
2019-05-10T13:06:07.894Z,4.37
2019-05-10T13:08:36.469Z,3.13
2019-05-10T13:11:05.267Z,3.07
2019-05-10T13:13:33.904Z,3.40
2019-05-10T13:16:10.011Z,3.33
2019-05-10T13:18:49.930Z,3.33
2019-05-10T13:21:07.789Z,3.20
2019-05-10T13:23:35.871Z,3.60
2019-05-10T13:26:04.589Z,3.50
2019-05-10T13:28:36.481Z,3.77
2019-05-10T13:31:07.130Z,3.70
2019-05-10T13:33:42.111Z,3.93
2019-05-10T13:36:06.511Z,4.30
2019-05-10T13:38:36.893Z,3.87
2019-05-10T13:41:05.460Z,3.10
2019-05-10T13:43:34.081Z,3.57
2019-05-10T13:46:02.637Z,3.50
2019-05-10T13:48:32.807Z,3.30
2019-05-10T13:51:02.974Z,3.53
2019-05-10T13:53:31.603Z,3.00
2019-05-10T13:56:00.217Z,2.90
2019-05-10T13:58:28.750Z,3.30
2019-05-10T14:00:57.567Z,3.63
2019-05-10T14:03:26.372Z,3.90
2019-05-10T14:05:54.902Z,3.37
2019-05-10T14:08:23.511Z,3.13
2019-05-10T14:10:55.892Z,2.90
2019-05-10T14:13:22.792Z,3.47
2019-05-10T14:15:51.404Z,3.67
2019-05-10T14:18:19.938Z,3.50
2019-05-10T14:20:48.465Z,2.80
2019-05-10T14:23:17.971Z,3.10
2019-05-10T14:25:46.682Z,2.27
2019-05-10T14:28:17.303Z,2.30
2019-05-10T14:30:46.895Z,2.50
2019-05-10T14:33:17.276Z,2.20
2019-05-10T14:35:46.235Z,2.63
2019-05-10T14:38:14.861Z,2.40
2019-05-10T14:40:43.392Z,3.13
2019-05-10T14:43:12.087Z,2.50
2019-05-10T14:45:40.710Z,2.80
2019-05-10T14:48:09.262Z,2.73
2019-05-10T14:50:37.827Z,2.60
2019-05-10T14:53:06.437Z,2.60
2019-05-10T14:55:36.828Z,2.40
2019-05-10T14:58:05.307Z,2.40
2019-05-10T15:00:33.900Z,2.60
2019-05-10T15:03:05.734Z,3.07
2019-05-10T15:05:36.332Z,2.63
2019-05-10T15:08:04.610Z,3.33
2019-05-10T15:10:39.625Z,2.83
2019-05-10T15:13:06.458Z,3.20
2019-05-10T15:15:37.132Z,3.10
2019-05-10T15:18:05.410Z,3.70
2019-05-10T15:20:35.991Z,2.67
2019-05-10T15:23:04.399Z,3.23
2019-05-10T15:25:34.538Z,3.97
2019-05-10T15:28:05.810Z,3.30
2019-05-10T15:30:39.322Z,3.10
2019-05-10T15:33:05.042Z,3.80
2019-05-10T15:35:33.857Z,3.63
2019-05-10T15:38:05.152Z,3.00
2019-05-10T15:40:38.615Z,4.63
2019-05-10T15:43:04.043Z,3.70
2019-05-10T15:45:32.570Z,3.90
2019-05-10T15:48:04.492Z,3.93
2019-05-10T15:50:38.477Z,4.20
2019-05-10T15:53:06.316Z,5.70
2019-05-10T15:55:35.041Z,5.53
2019-05-10T15:58:03.611Z,5.40
2019-05-10T16:00:39.626Z,5.50
2019-05-10T16:03:04.355Z,5.43
2019-05-10T16:05:42.965Z,5.30
2019-05-10T16:08:04.684Z,5.70
2019-05-10T16:10:39.540Z,6.77
2019-05-10T16:13:03.574Z,7.60
2019-05-10T16:15:33.696Z,7.30
2019-05-10T16:18:03.725Z,7.50
2019-05-10T16:20:37.387Z,7.10
2019-05-10T16:23:08.737Z,7.80
2019-05-10T16:25:41.224Z,7.87
2019-05-10T16:28:06.610Z,8.50
2019-05-10T16:30:36.565Z,7.30
2019-05-10T16:33:09.581Z,7.00
2019-05-10T16:35:38.911Z,6.40
2019-05-10T16:38:05.827Z,7.43
2019-05-10T16:40:34.417Z,7.30
2019-05-10T16:43:06.999Z,6.50
2019-05-10T16:45:35.152Z,6.80
2019-05-10T16:48:05.808Z,6.60
2019-05-10T16:50:34.201Z,7.03
2019-05-10T16:53:05.645Z,7.53
2019-05-10T16:55:41.060Z,6.40
2019-05-10T16:58:09.453Z,5.20
2019-05-10T17:00:40.806Z,4.07
2019-05-10T17:03:07.154Z,4.17
2019-05-10T17:05:35.904Z,3.40
2019-05-10T17:08:05.665Z,3.20
2019-05-10T17:10:35.793Z,3.00
2019-05-10T17:13:06.544Z,2.60
2019-05-10T17:15:39.914Z,2.20
2019-05-10T17:18:10.781Z,2.30
2019-05-10T17:20:35.695Z,1.60
2019-05-10T17:23:08.823Z,2.03
2019-05-10T17:25:35.522Z,2.30
2019-05-10T17:28:04.316Z,2.00
2019-05-10T17:30:34.468Z,2.30
2019-05-10T17:33:06.115Z,3.93
2019-05-10T17:35:36.614Z,4.10
2019-05-10T17:38:08.018Z,5.30
2019-05-10T17:40:35.800Z,6.10
2019-05-10T17:43:04.714Z,3.53
2019-05-10T17:45:40.429Z,5.23
2019-05-10T17:48:08.534Z,4.07
2019-05-10T17:50:36.834Z,4.63
2019-05-10T17:53:05.447Z,4.53
2019-05-10T17:55:34.054Z,4.53
2019-05-10T17:58:05.635Z,4.30
2019-05-10T18:00:34.362Z,3.30
2019-05-10T18:03:04.830Z,3.37
2019-05-10T18:05:36.231Z,3.07
2019-05-10T18:08:09.254Z,3.67
2019-05-10T18:10:41.156Z,3.60
2019-05-10T18:13:09.822Z,2.03
2019-05-10T18:15:38.739Z,2.17
2019-05-10T18:18:07.350Z,2.40
2019-05-10T18:20:41.812Z,2.33
2019-05-10T18:23:06.315Z,1.93
2019-05-10T18:25:34.919Z,2.10
2019-05-10T18:28:03.836Z,2.40
2019-05-10T18:30:33.992Z,1.97
2019-05-10T18:33:06.818Z,2.30
2019-05-10T18:35:35.723Z,2.00
2019-05-10T18:38:04.334Z,2.70
2019-05-10T18:40:34.505Z,2.63
2019-05-10T18:43:05.899Z,2.40
2019-05-10T18:45:34.511Z,2.27
2019-05-10T18:48:04.754Z,2.27
2019-05-10T18:50:39.786Z,2.13
2019-05-10T18:53:06.582Z,2.43
2019-05-10T18:55:35.294Z,2.97
2019-05-10T18:58:04.108Z,3.03
2019-05-10T19:00:32.819Z,2.80
2019-05-10T19:03:03.276Z,2.97
2019-05-10T19:05:34.859Z,3.13
2019-05-10T19:08:05.738Z,3.20
2019-05-10T19:10:34.043Z,3.37
2019-05-10T19:13:06.489Z,3.40
2019-05-10T19:15:35.163Z,3.43
2019-05-10T19:18:03.868Z,3.70
2019-05-10T19:20:33.930Z,3.23
2019-05-10T19:23:05.721Z,3.40
2019-05-10T19:25:37.545Z,3.00
2019-05-10T19:28:04.699Z,3.53
2019-05-10T19:30:33.293Z,3.77
2019-05-10T19:33:02.143Z,3.80
2019-05-10T19:35:35.837Z,3.50
2019-05-10T19:38:04.054Z,3.17
2019-05-10T19:40:32.973Z,3.60
2019-05-10T19:43:01.594Z,4.17
2019-05-10T19:45:31.146Z,4.00
2019-05-10T19:47:59.858Z,3.47
2019-05-10T19:50:30.997Z,4.30
2019-05-10T19:53:03.722Z,4.13
2019-05-10T19:55:29.179Z,3.47
2019-05-10T19:57:57.789Z,4.20
2019-05-10T20:00:26.403Z,4.40
2019-05-10T20:02:55.008Z,4.60
2019-05-10T20:05:23.623Z,4.80
2019-05-10T20:07:52.228Z,4.30
2019-05-10T20:10:20.940Z,5.67
2019-05-10T20:12:49.550Z,5.43
2019-05-10T20:15:18.379Z,4.70
2019-05-10T20:17:47.168Z,5.30
2019-05-10T20:20:15.813Z,6.37
2019-05-10T20:22:44.416Z,6.80
2019-05-10T20:25:13.447Z,6.30
2019-05-10T20:27:42.052Z,6.73
2019-05-10T20:30:11.738Z,6.43
2019-05-10T20:32:40.329Z,6.80
2019-05-10T20:35:09.431Z,6.23
2019-05-10T20:37:38.053Z,7.60
2019-05-10T20:40:07.898Z,6.17
2019-05-10T20:42:36.437Z,5.87
2019-05-10T20:45:08.437Z,5.93
2019-05-10T20:47:36.279Z,6.13
2019-05-10T20:50:05.856Z,7.00
2019-05-10T20:52:34.524Z,6.80
2019-05-10T20:55:07.220Z,8.63
2019-05-10T20:57:35.847Z,7.43
2019-05-10T21:00:08.968Z,6.47
2019-05-10T21:02:37.587Z,8.27
2019-05-10T21:05:07.732Z,7.93
2019-05-10T21:07:36.360Z,7.57
2019-05-10T21:10:06.333Z,6.80
2019-05-10T21:12:34.919Z,7.80
2019-05-10T21:15:05.511Z,7.90
2019-05-10T21:17:34.083Z,6.60
2019-05-10T21:20:02.694Z,6.77
2019-05-10T21:22:31.356Z,7.03
2019-05-10T21:25:00.211Z,7.00
2019-05-10T21:27:28.920Z,7.90
2019-05-10T21:29:57.732Z,7.37
2019-05-10T21:32:26.455Z,6.90
2019-05-10T21:34:55.431Z,6.80
2019-05-10T21:37:24.727Z,6.83
2019-05-10T21:39:54.411Z,6.90
2019-05-10T21:42:24.599Z,7.23
2019-05-10T21:44:53.752Z,6.60
2019-05-10T21:47:22.471Z,6.90
2019-05-10T21:49:51.214Z,6.83
2019-05-10T21:52:20.069Z,7.17
2019-05-10T21:54:49.210Z,6.80
2019-05-10T21:57:17.952Z,8.03
2019-05-10T21:59:46.926Z,7.80
2019-05-10T22:02:15.850Z,8.20
2019-05-10T22:04:47.999Z,8.70
2019-05-10T22:07:15.496Z,6.90
2019-05-10T22:09:44.066Z,7.43
2019-05-10T22:12:12.833Z,8.23
2019-05-10T22:14:41.654Z,7.57
2019-05-10T22:17:10.492Z,7.50
2019-05-10T22:19:39.189Z,7.47
2019-05-10T22:22:07.808Z,8.40
2019-05-10T22:24:36.431Z,8.70
2019-05-10T22:27:05.370Z,7.07
2019-05-10T22:29:34.032Z,8.70
2019-05-10T22:32:02.676Z,9.23
2019-05-10T22:34:33.090Z,9.20
2019-05-10T22:37:04.566Z,8.70
2019-05-10T22:39:36.072Z,8.73
2019-05-10T22:42:04.856Z,8.93
2019-05-10T22:44:33.487Z,7.67
2019-05-10T22:47:02.142Z,8.50
2019-05-10T22:49:33.562Z,7.03
2019-05-10T22:52:02.405Z,8.80
2019-05-10T22:54:31.333Z,7.47
2019-05-10T22:56:59.920Z,7.60
2019-05-10T22:59:28.559Z,7.40
2019-05-10T23:01:57.265Z,8.13
2019-05-10T23:04:25.989Z,9.00
2019-05-10T23:06:54.712Z,8.53
2019-05-10T23:09:25.161Z,7.83
2019-05-10T23:11:54.121Z,8.63
2019-05-10T23:14:22.771Z,9.97
2019-05-10T23:16:51.867Z,7.77
2019-05-10T23:19:20.797Z,9.30
2019-05-10T23:21:49.514Z,8.97
2019-05-10T23:24:18.218Z,8.70
2019-05-10T23:26:46.940Z,7.83
2019-05-10T23:29:15.599Z,8.30
2019-05-10T23:31:44.382Z,8.10
2019-05-10T23:34:13.097Z,9.00
2019-05-10T23:36:41.822Z,8.30
2019-05-10T23:39:11.281Z,9.80
2019-05-10T23:41:39.989Z,8.67
2019-05-10T23:44:09.009Z,8.27
2019-05-10T23:46:37.889Z,8.83
2019-05-10T23:49:06.441Z,8.97
2019-05-10T23:51:35.279Z,7.67
2019-05-10T23:54:03.994Z,8.33
2019-05-10T23:56:32.659Z,8.33
2019-05-10T23:59:01.308Z,9.17
